Terminal Aerodrome Forecast
Issued by NWS Jackson, KY

Home | Current Version | Previous Version | Text Only | Print | Product List | Glossary On
Versions: 1 2 3 4 5 6 7 8 9 10 11 12 13 14 15 16 17 18 19 20 21 22 23 24 25 26 27
432
FTUS43 KJKL 280844 AAB
TAFJKL
TAF AMD
KJKL 280844Z 2809/2906 VRB04KT 6SM BCFG VCSH SCT001 SCT040 OVC110
     FM281400 VRB06KT 3SM SHRA BR VCTS FEW007 SCT010 OVC035CB
     FM281800 VRB06KT 3SM +SHRA BR VCTS SCT003CB OVC020
     FM290000 VRB03KT 1SM -SHRA BR VCTS OVC008CB
     FM290400 VRB03KT 2SM -SHRA BR VCTS BKN003CB OVC008=

USA.gov is the U.S. government's official web portal to all federal, state and local government web resources and services.